Terminal Aerodrome Forecast
Issued by NWS Mt. Holly, NJ

Home | Current Version | Previous Version | Text Only | Print | Product List | Glossary On
Versions: 1 2 3 4 5 6 7 8 9 10 11 12 13 14 15
000
FTAK31 PANC 231140
TAFABE
TAF
PABE 231140Z 2312/2412 12004KT P6SM SCT010 BKN035
      TEMPO 2312/2316 2SM -SHSN BR BKN015 OVC035
     FM232000 15004KT P6SM BKN050=

USA.gov is the U.S. government's official web portal to all federal, state and local government web resources and services.